sensor_id;sensor_type;location;lat;lon;timestamp;P1;durP1;ratioP1;P2;durP2;ratioP2
6529;SDS011;3298;42.688;23.366;2022-09-14T00:00:13;4.50;;;4.20;;
6529;SDS011;3298;42.688;23.366;2022-09-14T00:02:40;4.20;;;3.97;;
6529;SDS011;3298;42.688;23.366;2022-09-14T00:05:07;4.17;;;3.80;;
6529;SDS011;3298;42.688;23.366;2022-09-14T00:07:34;4.33;;;4.03;;
6529;SDS011;3298;42.688;23.366;2022-09-14T00:10:01;3.87;;;3.63;;
6529;SDS011;3298;42.688;23.366;2022-09-14T00:12:29;5.10;;;4.80;;
6529;SDS011;3298;42.688;23.366;2022-09-14T00:14:56;6.57;;;4.33;;
6529;SDS011;3298;42.688;23.366;2022-09-14T00:17:23;4.73;;;4.43;;
6529;SDS011;3298;42.688;23.366;2022-09-14T00:19:50;4.47;;;4.07;;
6529;SDS011;3298;42.688;23.366;2022-09-14T00:22:17;4.73;;;4.13;;
6529;SDS011;3298;42.688;23.366;2022-09-14T00:24:44;4.80;;;3.90;;
6529;SDS011;3298;42.688;23.366;2022-09-14T00:27:11;4.10;;;3.80;;
6529;SDS011;3298;42.688;23.366;2022-09-14T00:29:39;4.40;;;4.10;;
6529;SDS011;3298;42.688;23.366;2022-09-14T00:32:06;4.97;;;4.47;;
6529;SDS011;3298;42.688;23.366;2022-09-14T00:34:32;4.30;;;3.90;;
6529;SDS011;3298;42.688;23.366;2022-09-14T00:36:59;4.97;;;4.67;;
6529;SDS011;3298;42.688;23.366;2022-09-14T00:39:26;4.60;;;4.20;;
6529;SDS011;3298;42.688;23.366;2022-09-14T00:41:53;5.23;;;4.83;;
6529;SDS011;3298;42.688;23.366;2022-09-14T00:47:28;7.43;;;5.63;;
6529;SDS011;3298;42.688;23.366;2022-09-14T00:49:57;5.50;;;5.20;;
6529;SDS011;3298;42.688;23.366;2022-09-14T00:52:27;5.97;;;5.67;;
6529;SDS011;3298;42.688;23.366;2022-09-14T00:54:57;8.83;;;6.73;;
6529;SDS011;3298;42.688;23.366;2022-09-14T00:57:26;6.50;;;6.07;;
6529;SDS011;3298;42.688;23.366;2022-09-14T00:59:55;6.83;;;6.33;;
6529;SDS011;3298;42.688;23.366;2022-09-14T01:02:24;9.43;;;6.63;;
6529;SDS011;3298;42.688;23.366;2022-09-14T01:04:53;6.87;;;6.20;;
6529;SDS011;3298;42.688;23.366;2022-09-14T01:07:27;10.40;;;6.00;;
6529;SDS011;3298;42.688;23.366;2022-09-14T01:10:05;6.40;;;6.03;;
6529;SDS011;3298;42.688;23.366;2022-09-14T01:12:43;7.10;;;6.50;;
6529;SDS011;3298;42.688;23.366;2022-09-14T01:15:21;5.83;;;5.53;;
6529;SDS011;3298;42.688;23.366;2022-09-14T01:17:59;5.70;;;5.20;;
6529;SDS011;3298;42.688;23.366;2022-09-14T01:20:33;6.10;;;5.53;;
6529;SDS011;3298;42.688;23.366;2022-09-14T01:23:06;5.80;;;5.40;;
6529;SDS011;3298;42.688;23.366;2022-09-14T01:25:57;5.50;;;5.20;;
6529;SDS011;3298;42.688;23.366;2022-09-14T01:28:44;5.97;;;5.57;;
6529;SDS011;3298;42.688;23.366;2022-09-14T01:31:19;6.60;;;6.10;;
6529;SDS011;3298;42.688;23.366;2022-09-14T01:33:52;6.17;;;5.67;;
6529;SDS011;3298;42.688;23.366;2022-09-14T01:36:25;5.20;;;4.90;;
6529;SDS011;3298;42.688;23.366;2022-09-14T01:38:54;6.00;;;5.60;;
6529;SDS011;3298;42.688;23.366;2022-09-14T01:41:22;6.47;;;6.07;;
6529;SDS011;3298;42.688;23.366;2022-09-14T01:43:56;17.00;;;6.40;;
6529;SDS011;3298;42.688;23.366;2022-09-14T01:46:29;6.10;;;5.57;;
6529;SDS011;3298;42.688;23.366;2022-09-14T01:49:00;8.97;;;5.80;;
6529;SDS011;3298;42.688;23.366;2022-09-14T01:51:32;6.23;;;5.60;;
6529;SDS011;3298;42.688;23.366;2022-09-14T01:54:05;5.87;;;5.47;;
6529;SDS011;3298;42.688;23.366;2022-09-14T01:56:37;6.73;;;6.13;;
6529;SDS011;3298;42.688;23.366;2022-09-14T01:59:09;6.30;;;5.70;;
6529;SDS011;3298;42.688;23.366;2022-09-14T02:01:42;5.77;;;5.27;;
6529;SDS011;3298;42.688;23.366;2022-09-14T02:04:12;6.10;;;5.60;;
6529;SDS011;3298;42.688;23.366;2022-09-14T02:06:43;5.93;;;5.47;;
6529;SDS011;3298;42.688;23.366;2022-09-14T02:09:14;5.97;;;5.37;;
6529;SDS011;3298;42.688;23.366;2022-09-14T02:11:43;6.60;;;6.13;;
6529;SDS011;3298;42.688;23.366;2022-09-14T02:14:12;5.90;;;5.50;;
6529;SDS011;3298;42.688;23.366;2022-09-14T02:16:39;6.10;;;5.67;;
6529;SDS011;3298;42.688;23.366;2022-09-14T02:19:10;5.90;;;5.50;;
6529;SDS011;3298;42.688;23.366;2022-09-14T02:21:37;8.30;;;5.50;;
6529;SDS011;3298;42.688;23.366;2022-09-14T02:24:05;6.10;;;5.37;;
6529;SDS011;3298;42.688;23.366;2022-09-14T02:26:32;5.30;;;4.93;;
6529;SDS011;3298;42.688;23.366;2022-09-14T02:29:00;5.60;;;5.23;;
6529;SDS011;3298;42.688;23.366;2022-09-14T02:31:32;9.33;;;5.43;;
6529;SDS011;3298;42.688;23.366;2022-09-14T02:34:09;6.07;;;5.57;;
6529;SDS011;3298;42.688;23.366;2022-09-14T02:36:51;7.60;;;5.47;;
6529;SDS011;3298;42.688;23.366;2022-09-14T02:39:26;5.77;;;5.37;;
6529;SDS011;3298;42.688;23.366;2022-09-14T02:42:03;5.67;;;5.37;;
6529;SDS011;3298;42.688;23.366;2022-09-14T02:44:41;6.27;;;5.87;;
6529;SDS011;3298;42.688;23.366;2022-09-14T02:47:16;13.23;;;5.83;;
6529;SDS011;3298;42.688;23.366;2022-09-14T02:49:49;7.07;;;5.53;;
6529;SDS011;3298;42.688;23.366;2022-09-14T02:52:25;6.67;;;6.00;;
6529;SDS011;3298;42.688;23.366;2022-09-14T02:54:57;5.73;;;5.43;;
6529;SDS011;3298;42.688;23.366;2022-09-14T02:57:28;6.37;;;5.87;;
6529;SDS011;3298;42.688;23.366;2022-09-14T02:59:55;6.43;;;5.93;;
6529;SDS011;3298;42.688;23.366;2022-09-14T03:02:23;5.97;;;5.37;;
6529;SDS011;3298;42.688;23.366;2022-09-14T03:04:50;7.73;;;6.07;;
6529;SDS011;3298;42.688;23.366;2022-09-14T03:07:17;9.73;;;5.90;;
6529;SDS011;3298;42.688;23.366;2022-09-14T03:09:44;7.80;;;5.17;;
6529;SDS011;3298;42.688;23.366;2022-09-14T03:12:11;6.77;;;5.83;;
6529;SDS011;3298;42.688;23.366;2022-09-14T03:14:37;8.33;;;6.30;;
6529;SDS011;3298;42.688;23.366;2022-09-14T03:17:04;10.07;;;5.17;;
6529;SDS011;3298;42.688;23.366;2022-09-14T03:19:33;6.10;;;5.70;;
6529;SDS011;3298;42.688;23.366;2022-09-14T03:22:00;7.90;;;5.30;;
6529;SDS011;3298;42.688;23.366;2022-09-14T03:24:26;6.67;;;5.40;;
6529;SDS011;3298;42.688;23.366;2022-09-14T03:26:53;6.80;;;6.13;;
6529;SDS011;3298;42.688;23.366;2022-09-14T03:29:20;8.40;;;6.10;;
6529;SDS011;3298;42.688;23.366;2022-09-14T03:31:46;6.27;;;5.80;;
6529;SDS011;3298;42.688;23.366;2022-09-14T03:34:13;5.83;;;5.43;;
6529;SDS011;3298;42.688;23.366;2022-09-14T03:36:41;6.03;;;5.50;;
6529;SDS011;3298;42.688;23.366;2022-09-14T03:39:08;6.57;;;6.03;;
6529;SDS011;3298;42.688;23.366;2022-09-14T03:41:36;7.40;;;5.37;;
6529;SDS011;3298;42.688;23.366;2022-09-14T03:44:03;6.70;;;6.03;;
6529;SDS011;3298;42.688;23.366;2022-09-14T03:46:30;6.20;;;5.80;;
6529;SDS011;3298;42.688;23.366;2022-09-14T03:48:56;7.57;;;6.07;;
6529;SDS011;3298;42.688;23.366;2022-09-14T03:51:23;7.60;;;6.00;;
6529;SDS011;3298;42.688;23.366;2022-09-14T03:53:51;6.93;;;6.53;;
6529;SDS011;3298;42.688;23.366;2022-09-14T03:56:19;9.83;;;6.53;;
6529;SDS011;3298;42.688;23.366;2022-09-14T03:58:48;7.13;;;6.53;;
6529;SDS011;3298;42.688;23.366;2022-09-14T04:01:16;7.07;;;6.47;;
6529;SDS011;3298;42.688;23.366;2022-09-14T04:03:44;7.10;;;6.47;;
6529;SDS011;3298;42.688;23.366;2022-09-14T04:06:11;10.23;;;6.73;;
6529;SDS011;3298;42.688;23.366;2022-09-14T04:08:39;6.93;;;6.23;;
6529;SDS011;3298;42.688;23.366;2022-09-14T04:11:09;7.03;;;6.43;;
6529;SDS011;3298;42.688;23.366;2022-09-14T04:13:37;7.23;;;6.03;;
6529;SDS011;3298;42.688;23.366;2022-09-14T04:16:04;12.40;;;6.07;;
6529;SDS011;3298;42.688;23.366;2022-09-14T04:18:31;7.30;;;6.70;;
6529;SDS011;3298;42.688;23.366;2022-09-14T04:20:58;8.27;;;6.80;;
6529;SDS011;3298;42.688;23.366;2022-09-14T04:23:26;10.33;;;7.00;;
6529;SDS011;3298;42.688;23.366;2022-09-14T04:25:53;15.33;;;6.33;;
6529;SDS011;3298;42.688;23.366;2022-09-14T04:28:21;13.53;;;7.77;;
6529;SDS011;3298;42.688;23.366;2022-09-14T04:30:55;7.33;;;6.70;;
6529;SDS011;3298;42.688;23.366;2022-09-14T04:33:23;9.97;;;7.37;;
6529;SDS011;3298;42.688;23.366;2022-09-14T04:35:58;7.83;;;7.17;;
6529;SDS011;3298;42.688;23.366;2022-09-14T04:38:26;7.03;;;6.63;;
6529;SDS011;3298;42.688;23.366;2022-09-14T04:40:53;8.17;;;6.93;;
6529;SDS011;3298;42.688;23.366;2022-09-14T04:43:22;7.83;;;7.03;;
6529;SDS011;3298;42.688;23.366;2022-09-14T04:45:49;7.77;;;7.20;;
6529;SDS011;3298;42.688;23.366;2022-09-14T04:48:16;7.13;;;6.50;;
6529;SDS011;3298;42.688;23.366;2022-09-14T04:50:43;6.93;;;6.20;;
6529;SDS011;3298;42.688;23.366;2022-09-14T04:53:10;9.20;;;8.13;;
6529;SDS011;3298;42.688;23.366;2022-09-14T04:55:37;15.60;;;8.00;;
6529;SDS011;3298;42.688;23.366;2022-09-14T04:58:04;8.97;;;6.80;;
6529;SDS011;3298;42.688;23.366;2022-09-14T05:00:33;9.70;;;6.87;;
6529;SDS011;3298;42.688;23.366;2022-09-14T05:03:01;9.13;;;7.10;;
6529;SDS011;3298;42.688;23.366;2022-09-14T05:05:30;8.77;;;6.97;;
6529;SDS011;3298;42.688;23.366;2022-09-14T05:07:59;6.77;;;6.17;;
6529;SDS011;3298;42.688;23.366;2022-09-14T05:10:26;7.63;;;6.93;;
6529;SDS011;3298;42.688;23.366;2022-09-14T05:12:53;14.47;;;7.13;;
6529;SDS011;3298;42.688;23.366;2022-09-14T05:15:20;8.20;;;7.60;;
6529;SDS011;3298;42.688;23.366;2022-09-14T05:17:48;10.73;;;6.57;;
6529;SDS011;3298;42.688;23.366;2022-09-14T05:20:15;7.13;;;6.60;;
6529;SDS011;3298;42.688;23.366;2022-09-14T05:22:42;6.80;;;6.20;;
6529;SDS011;3298;42.688;23.366;2022-09-14T05:25:09;6.47;;;6.07;;
6529;SDS011;3298;42.688;23.366;2022-09-14T05:27:36;7.67;;;6.57;;
6529;SDS011;3298;42.688;23.366;2022-09-14T05:30:03;7.20;;;6.50;;
6529;SDS011;3298;42.688;23.366;2022-09-14T05:32:30;7.50;;;6.83;;
6529;SDS011;3298;42.688;23.366;2022-09-14T05:34:58;9.27;;;5.80;;
6529;SDS011;3298;42.688;23.366;2022-09-14T05:37:25;7.13;;;6.53;;
6529;SDS011;3298;42.688;23.366;2022-09-14T05:39:52;7.23;;;6.73;;
6529;SDS011;3298;42.688;23.366;2022-09-14T05:42:18;9.37;;;8.50;;
6529;SDS011;3298;42.688;23.366;2022-09-14T05:44:45;10.33;;;7.97;;
6529;SDS011;3298;42.688;23.366;2022-09-14T05:47:12;8.87;;;7.97;;
6529;SDS011;3298;42.688;23.366;2022-09-14T05:49:38;13.13;;;8.33;;
6529;SDS011;3298;42.688;23.366;2022-09-14T05:52:07;10.37;;;7.70;;
6529;SDS011;3298;42.688;23.366;2022-09-14T05:54:33;11.13;;;7.60;;
6529;SDS011;3298;42.688;23.366;2022-09-14T05:57:00;14.60;;;7.53;;
6529;SDS011;3298;42.688;23.366;2022-09-14T05:59:27;8.50;;;7.90;;
6529;SDS011;3298;42.688;23.366;2022-09-14T06:01:55;12.10;;;7.33;;
6529;SDS011;3298;42.688;23.366;2022-09-14T06:04:23;9.93;;;9.03;;
6529;SDS011;3298;42.688;23.366;2022-09-14T06:06:49;9.30;;;7.47;;
6529;SDS011;3298;42.688;23.366;2022-09-14T06:09:17;7.50;;;6.77;;
6529;SDS011;3298;42.688;23.366;2022-09-14T06:11:44;7.77;;;7.27;;
6529;SDS011;3298;42.688;23.366;2022-09-14T06:14:11;9.90;;;7.10;;
6529;SDS011;3298;42.688;23.366;2022-09-14T06:16:38;8.03;;;7.40;;
6529;SDS011;3298;42.688;23.366;2022-09-14T06:19:04;9.23;;;6.93;;
6529;SDS011;3298;42.688;23.366;2022-09-14T06:21:32;8.80;;;7.50;;
6529;SDS011;3298;42.688;23.366;2022-09-14T06:24:00;8.27;;;6.70;;
6529;SDS011;3298;42.688;23.366;2022-09-14T06:26:28;15.00;;;8.33;;
6529;SDS011;3298;42.688;23.366;2022-09-14T06:28:55;11.27;;;7.80;;
6529;SDS011;3298;42.688;23.366;2022-09-14T06:31:22;14.57;;;6.27;;
6529;SDS011;3298;42.688;23.366;2022-09-14T06:33:49;10.97;;;6.87;;
6529;SDS011;3298;42.688;23.366;2022-09-14T06:36:18;12.67;;;6.47;;
6529;SDS011;3298;42.688;23.366;2022-09-14T06:38:46;7.53;;;6.57;;
6529;SDS011;3298;42.688;23.366;2022-09-14T06:41:14;10.40;;;6.57;;
6529;SDS011;3298;42.688;23.366;2022-09-14T06:43:44;8.53;;;6.17;;
6529;SDS011;3298;42.688;23.366;2022-09-14T06:46:12;20.10;;;7.13;;
6529;SDS011;3298;42.688;23.366;2022-09-14T06:48:43;7.40;;;6.80;;
6529;SDS011;3298;42.688;23.366;2022-09-14T06:51:12;11.77;;;5.80;;
6529;SDS011;3298;42.688;23.366;2022-09-14T06:53:41;6.23;;;5.70;;
6529;SDS011;3298;42.688;23.366;2022-09-14T06:56:08;6.00;;;5.60;;
6529;SDS011;3298;42.688;23.366;2022-09-14T06:58:36;6.27;;;4.27;;
6529;SDS011;3298;42.688;23.366;2022-09-14T07:01:07;6.03;;;4.97;;
6529;SDS011;3298;42.688;23.366;2022-09-14T07:03:36;5.50;;;5.10;;
6529;SDS011;3298;42.688;23.366;2022-09-14T07:06:05;5.40;;;5.07;;
6529;SDS011;3298;42.688;23.366;2022-09-14T07:08:34;7.53;;;4.57;;
6529;SDS011;3298;42.688;23.366;2022-09-14T07:11:01;9.80;;;5.00;;
6529;SDS011;3298;42.688;23.366;2022-09-14T07:13:29;5.40;;;5.00;;
6529;SDS011;3298;42.688;23.366;2022-09-14T07:15:56;5.20;;;4.90;;
6529;SDS011;3298;42.688;23.366;2022-09-14T07:18:25;13.37;;;4.70;;
6529;SDS011;3298;42.688;23.366;2022-09-14T07:20:59;5.43;;;4.97;;
6529;SDS011;3298;42.688;23.366;2022-09-14T07:23:27;8.00;;;5.13;;
6529;SDS011;3298;42.688;23.366;2022-09-14T07:25:58;5.87;;;4.43;;
6529;SDS011;3298;42.688;23.366;2022-09-14T07:28:26;5.57;;;5.13;;
6529;SDS011;3298;42.688;23.366;2022-09-14T07:30:52;4.80;;;4.40;;
6529;SDS011;3298;42.688;23.366;2022-09-14T07:33:19;8.27;;;5.07;;
6529;SDS011;3298;42.688;23.366;2022-09-14T07:35:47;5.40;;;4.70;;
6529;SDS011;3298;42.688;23.366;2022-09-14T07:38:14;6.00;;;4.80;;
6529;SDS011;3298;42.688;23.366;2022-09-14T07:40:41;12.87;;;5.17;;
6529;SDS011;3298;42.688;23.366;2022-09-14T07:43:08;6.20;;;5.37;;
6529;SDS011;3298;42.688;23.366;2022-09-14T07:45:34;5.67;;;5.03;;
6529;SDS011;3298;42.688;23.366;2022-09-14T07:48:02;10.83;;;4.77;;
6529;SDS011;3298;42.688;23.366;2022-09-14T07:50:29;8.70;;;4.97;;
6529;SDS011;3298;42.688;23.366;2022-09-14T07:52:57;5.83;;;5.50;;
6529;SDS011;3298;42.688;23.366;2022-09-14T07:55:24;5.13;;;4.67;;
6529;SDS011;3298;42.688;23.366;2022-09-14T07:57:53;6.27;;;5.10;;
6529;SDS011;3298;42.688;23.366;2022-09-14T08:00:20;12.63;;;5.27;;
6529;SDS011;3298;42.688;23.366;2022-09-14T08:02:50;5.30;;;4.90;;
6529;SDS011;3298;42.688;23.366;2022-09-14T08:05:17;5.33;;;5.03;;
6529;SDS011;3298;42.688;23.366;2022-09-14T08:07:44;5.27;;;4.73;;
6529;SDS011;3298;42.688;23.366;2022-09-14T08:10:13;5.57;;;4.83;;
6529;SDS011;3298;42.688;23.366;2022-09-14T08:12:40;5.40;;;4.90;;
6529;SDS011;3298;42.688;23.366;2022-09-14T08:15:07;4.60;;;4.20;;
6529;SDS011;3298;42.688;23.366;2022-09-14T08:17:34;4.70;;;4.30;;
6529;SDS011;3298;42.688;23.366;2022-09-14T08:20:01;5.47;;;4.50;;
6529;SDS011;3298;42.688;23.366;2022-09-14T08:22:28;4.67;;;4.37;;
6529;SDS011;3298;42.688;23.366;2022-09-14T08:24:55;6.83;;;4.10;;
6529;SDS011;3298;42.688;23.366;2022-09-14T08:27:23;8.13;;;4.30;;
6529;SDS011;3298;42.688;23.366;2022-09-14T08:29:50;4.13;;;3.80;;
6529;SDS011;3298;42.688;23.366;2022-09-14T08:32:17;16.20;;;5.50;;
6529;SDS011;3298;42.688;23.366;2022-09-14T08:34:44;6.13;;;4.60;;
6529;SDS011;3298;42.688;23.366;2022-09-14T08:37:11;4.57;;;4.27;;
6529;SDS011;3298;42.688;23.366;2022-09-14T08:39:39;4.60;;;3.93;;
6529;SDS011;3298;42.688;23.366;2022-09-14T08:42:07;9.30;;;4.40;;
6529;SDS011;3298;42.688;23.366;2022-09-14T08:44:40;4.23;;;3.93;;
6529;SDS011;3298;42.688;23.366;2022-09-14T08:47:10;5.87;;;3.97;;
6529;SDS011;3298;42.688;23.366;2022-09-14T08:49:42;4.43;;;4.07;;
6529;SDS011;3298;42.688;23.366;2022-09-14T08:52:12;9.87;;;4.77;;
6529;SDS011;3298;42.688;23.366;2022-09-14T08:54:45;6.40;;;4.33;;
6529;SDS011;3298;42.688;23.366;2022-09-14T08:57:14;6.10;;;4.17;;
6529;SDS011;3298;42.688;23.366;2022-09-14T08:59:48;9.13;;;4.40;;
6529;SDS011;3298;42.688;23.366;2022-09-14T09:02:33;4.57;;;3.97;;
6529;SDS011;3298;42.688;23.366;2022-09-14T09:05:16;4.77;;;4.37;;
6529;SDS011;3298;42.688;23.366;2022-09-14T09:07:52;6.93;;;4.00;;
6529;SDS011;3298;42.688;23.366;2022-09-14T09:10:25;4.30;;;4.00;;
6529;SDS011;3298;42.688;23.366;2022-09-14T09:12:55;7.27;;;3.93;;
6529;SDS011;3298;42.688;23.366;2022-09-14T09:15:26;5.40;;;4.23;;
6529;SDS011;3298;42.688;23.366;2022-09-14T09:17:57;3.87;;;3.67;;
6529;SDS011;3298;42.688;23.366;2022-09-14T09:20:27;4.40;;;3.93;;
6529;SDS011;3298;42.688;23.366;2022-09-14T09:22:59;8.67;;;3.90;;
6529;SDS011;3298;42.688;23.366;2022-09-14T09:25:38;4.17;;;3.50;;
6529;SDS011;3298;42.688;23.366;2022-09-14T09:28:15;4.67;;;3.93;;
6529;SDS011;3298;42.688;23.366;2022-09-14T09:30:44;4.37;;;4.07;;
6529;SDS011;3298;42.688;23.366;2022-09-14T09:33:12;4.37;;;4.07;;
6529;SDS011;3298;42.688;23.366;2022-09-14T09:35:42;4.60;;;4.30;;
6529;SDS011;3298;42.688;23.366;2022-09-14T09:38:11;5.30;;;3.83;;
6529;SDS011;3298;42.688;23.366;2022-09-14T09:40:40;9.47;;;3.30;;
6529;SDS011;3298;42.688;23.366;2022-09-14T09:43:11;6.50;;;4.43;;
6529;SDS011;3298;42.688;23.366;2022-09-14T09:45:51;10.13;;;4.53;;
6529;SDS011;3298;42.688;23.366;2022-09-14T09:48:26;7.63;;;4.50;;
6529;SDS011;3298;42.688;23.366;2022-09-14T09:50:58;9.60;;;4.87;;
6529;SDS011;3298;42.688;23.366;2022-09-14T09:53:33;6.63;;;4.50;;
6529;SDS011;3298;42.688;23.366;2022-09-14T09:56:02;5.33;;;4.87;;
6529;SDS011;3298;42.688;23.366;2022-09-14T09:58:31;9.13;;;5.37;;
6529;SDS011;3298;42.688;23.366;2022-09-14T10:01:02;14.83;;;4.70;;
6529;SDS011;3298;42.688;23.366;2022-09-14T10:03:32;5.77;;;5.30;;
6529;SDS011;3298;42.688;23.366;2022-09-14T10:06:02;6.10;;;5.20;;
6529;SDS011;3298;42.688;23.366;2022-09-14T10:08:31;10.17;;;4.83;;
6529;SDS011;3298;42.688;23.366;2022-09-14T10:11:00;4.73;;;4.23;;
6529;SDS011;3298;42.688;23.366;2022-09-14T10:13:29;10.17;;;4.90;;
6529;SDS011;3298;42.688;23.366;2022-09-14T10:16:11;5.23;;;4.73;;
6529;SDS011;3298;42.688;23.366;2022-09-14T10:18:41;13.07;;;4.30;;
6529;SDS011;3298;42.688;23.366;2022-09-14T10:21:10;5.73;;;3.90;;
6529;SDS011;3298;42.688;23.366;2022-09-14T10:23:39;12.20;;;4.40;;
6529;SDS011;3298;42.688;23.366;2022-09-14T10:26:17;6.80;;;4.17;;
6529;SDS011;3298;42.688;23.366;2022-09-14T10:28:51;6.40;;;4.50;;
6529;SDS011;3298;42.688;23.366;2022-09-14T10:31:26;6.03;;;3.57;;
6529;SDS011;3298;42.688;23.366;2022-09-14T10:33:58;8.30;;;4.53;;
6529;SDS011;3298;42.688;23.366;2022-09-14T10:36:27;7.47;;;3.80;;
6529;SDS011;3298;42.688;23.366;2022-09-14T10:38:56;6.30;;;3.93;;
6529;SDS011;3298;42.688;23.366;2022-09-14T10:41:28;6.37;;;3.87;;
6529;SDS011;3298;42.688;23.366;2022-09-14T10:44:14;7.43;;;4.13;;
6529;SDS011;3298;42.688;23.366;2022-09-14T10:46:58;5.40;;;3.70;;
6529;SDS011;3298;42.688;23.366;2022-09-14T10:49:45;6.33;;;3.00;;
6529;SDS011;3298;42.688;23.366;2022-09-14T10:52:24;3.80;;;3.17;;
6529;SDS011;3298;42.688;23.366;2022-09-14T10:55:02;5.80;;;3.13;;
6529;SDS011;3298;42.688;23.366;2022-09-14T10:57:50;8.70;;;3.30;;
6529;SDS011;3298;42.688;23.366;2022-09-14T11:00:22;6.30;;;3.30;;
6529;SDS011;3298;42.688;23.366;2022-09-14T11:02:54;3.40;;;3.13;;
6529;SDS011;3298;42.688;23.366;2022-09-14T11:05:29;4.60;;;3.80;;
6529;SDS011;3298;42.688;23.366;2022-09-14T11:08:02;4.70;;;3.13;;
6529;SDS011;3298;42.688;23.366;2022-09-14T11:10:40;6.53;;;3.28;;
6529;SDS011;3298;42.688;23.366;2022-09-14T11:13:21;2.90;;;2.70;;
6529;SDS011;3298;42.688;23.366;2022-09-14T11:16:07;2.65;;;2.45;;
6529;SDS011;3298;42.688;23.366;2022-09-14T11:18:45;5.13;;;2.67;;
6529;SDS011;3298;42.688;23.366;2022-09-14T11:21:19;2.90;;;2.60;;
6529;SDS011;3298;42.688;23.366;2022-09-14T11:23:55;2.43;;;2.23;;
6529;SDS011;3298;42.688;23.366;2022-09-14T11:26:26;3.87;;;2.60;;
6529;SDS011;3298;42.688;23.366;2022-09-14T11:28:57;5.87;;;2.30;;
6529;SDS011;3298;42.688;23.366;2022-09-14T11:31:29;4.80;;;2.23;;
6529;SDS011;3298;42.688;23.366;2022-09-14T11:34:05;3.27;;;1.30;;
6529;SDS011;3298;42.688;23.366;2022-09-14T11:36:39;2.70;;;1.70;;
6529;SDS011;3298;42.688;23.366;2022-09-14T11:39:10;7.60;;;1.63;;
6529;SDS011;3298;42.688;23.366;2022-09-14T11:41:44;1.43;;;1.33;;
6529;SDS011;3298;42.688;23.366;2022-09-14T11:44:17;4.33;;;1.50;;
6529;SDS011;3298;42.688;23.366;2022-09-14T11:46:49;1.57;;;1.47;;
6529;SDS011;3298;42.688;23.366;2022-09-14T11:49:24;1.60;;;1.27;;
6529;SDS011;3298;42.688;23.366;2022-09-14T11:51:54;2.10;;;1.47;;
6529;SDS011;3298;42.688;23.366;2022-09-14T11:54:25;1.50;;;1.43;;
6529;SDS011;3298;42.688;23.366;2022-09-14T11:56:53;1.70;;;1.60;;
6529;SDS011;3298;42.688;23.366;2022-09-14T11:59:33;2.50;;;1.10;;
6529;SDS011;3298;42.688;23.366;2022-09-14T12:05:24;1.67;;;1.40;;
6529;SDS011;3298;42.688;23.366;2022-09-14T12:07:57;3.10;;;1.93;;
6529;SDS011;3298;42.688;23.366;2022-09-14T12:10:25;2.23;;;2.13;;
6529;SDS011;3298;42.688;23.366;2022-09-14T12:12:52;1.67;;;1.53;;
6529;SDS011;3298;42.688;23.366;2022-09-14T12:15:30;2.33;;;2.00;;
6529;SDS011;3298;42.688;23.366;2022-09-14T12:21:00;4.87;;;2.83;;
6529;SDS011;3298;42.688;23.366;2022-09-14T12:29:04;5.67;;;1.27;;
6529;SDS011;3298;42.688;23.366;2022-09-14T12:32:00;1.20;;;1.10;;
6529;SDS011;3298;42.688;23.366;2022-09-14T12:34:29;5.63;;;1.40;;
6529;SDS011;3298;42.688;23.366;2022-09-14T12:37:25;1.70;;;1.43;;
6529;SDS011;3298;42.688;23.366;2022-09-14T12:40:11;4.07;;;1.47;;
6529;SDS011;3298;42.688;23.366;2022-09-14T12:49:00;1.30;;;1.20;;
6529;SDS011;3298;42.688;23.366;2022-09-14T12:51:30;1.10;;;1.10;;
6529;SDS011;3298;42.688;23.366;2022-09-14T12:54:19;2.43;;;1.20;;
6529;SDS011;3298;42.688;23.366;2022-09-14T12:56:56;1.40;;;1.30;;
6529;SDS011;3298;42.688;23.366;2022-09-14T12:59:30;1.10;;;1.00;;
6529;SDS011;3298;42.688;23.366;2022-09-14T13:02:12;2.70;;;1.50;;
6529;SDS011;3298;42.688;23.366;2022-09-14T13:04:55;1.33;;;1.17;;
6529;SDS011;3298;42.688;23.366;2022-09-14T13:07:24;1.10;;;1.10;;
6529;SDS011;3298;42.688;23.366;2022-09-14T13:09:56;3.07;;;1.30;;
6529;SDS011;3298;42.688;23.366;2022-09-14T13:12:32;3.17;;;2.97;;
6529;SDS011;3298;42.688;23.366;2022-09-14T13:15:04;4.03;;;1.70;;
6529;SDS011;3298;42.688;23.366;2022-09-14T13:17:33;2.07;;;1.37;;
6529;SDS011;3298;42.688;23.366;2022-09-14T13:20:00;1.53;;;1.53;;
6529;SDS011;3298;42.688;23.366;2022-09-14T13:22:29;1.33;;;1.33;;
6529;SDS011;3298;42.688;23.366;2022-09-14T13:24:59;1.50;;;1.30;;
6529;SDS011;3298;42.688;23.366;2022-09-14T13:27:26;2.03;;;1.00;;
6529;SDS011;3298;42.688;23.366;2022-09-14T13:29:58;2.27;;;1.10;;
6529;SDS011;3298;42.688;23.366;2022-09-14T13:32:27;2.53;;;1.40;;
6529;SDS011;3298;42.688;23.366;2022-09-14T13:34:54;1.30;;;1.20;;
6529;SDS011;3298;42.688;23.366;2022-09-14T13:37:21;3.57;;;1.20;;
6529;SDS011;3298;42.688;23.366;2022-09-14T13:39:49;1.60;;;1.50;;
6529;SDS011;3298;42.688;23.366;2022-09-14T13:42:20;1.80;;;0.97;;
6529;SDS011;3298;42.688;23.366;2022-09-14T13:44:47;2.40;;;1.30;;
6529;SDS011;3298;42.688;23.366;2022-09-14T13:47:15;4.23;;;1.40;;
6529;SDS011;3298;42.688;23.366;2022-09-14T13:49:45;2.30;;;1.20;;
6529;SDS011;3298;42.688;23.366;2022-09-14T13:52:27;1.27;;;1.10;;
6529;SDS011;3298;42.688;23.366;2022-09-14T13:55:07;2.20;;;1.20;;
6529;SDS011;3298;42.688;23.366;2022-09-14T14:00:45;1.30;;;1.20;;
6529;SDS011;3298;42.688;23.366;2022-09-14T14:03:19;4.80;;;4.33;;
6529;SDS011;3298;42.688;23.366;2022-09-14T14:05:54;2.33;;;2.13;;
6529;SDS011;3298;42.688;23.366;2022-09-14T14:08:26;2.03;;;1.20;;
6529;SDS011;3298;42.688;23.366;2022-09-14T14:10:56;1.87;;;1.33;;
6529;SDS011;3298;42.688;23.366;2022-09-14T14:13:27;1.37;;;1.27;;
6529;SDS011;3298;42.688;23.366;2022-09-14T14:18:48;3.40;;;1.30;;
6529;SDS011;3298;42.688;23.366;2022-09-14T14:21:28;3.03;;;1.10;;
6529;SDS011;3298;42.688;23.366;2022-09-14T14:26:46;4.63;;;1.60;;
6529;SDS011;3298;42.688;23.366;2022-09-14T14:29:15;1.00;;;1.00;;
6529;SDS011;3298;42.688;23.366;2022-09-14T14:31:42;1.60;;;1.50;;
6529;SDS011;3298;42.688;23.366;2022-09-14T14:34:10;4.50;;;1.60;;
6529;SDS011;3298;42.688;23.366;2022-09-14T14:36:43;1.93;;;1.57;;
6529;SDS011;3298;42.688;23.366;2022-09-14T14:39:12;3.70;;;1.53;;
6529;SDS011;3298;42.688;23.366;2022-09-14T14:41:39;1.43;;;1.37;;
6529;SDS011;3298;42.688;23.366;2022-09-14T14:44:07;2.37;;;1.37;;
6529;SDS011;3298;42.688;23.366;2022-09-14T14:46:39;3.10;;;1.83;;
6529;SDS011;3298;42.688;23.366;2022-09-14T14:49:06;3.27;;;1.60;;
6529;SDS011;3298;42.688;23.366;2022-09-14T14:51:34;1.50;;;1.40;;
6529;SDS011;3298;42.688;23.366;2022-09-14T14:54:01;2.23;;;1.50;;
6529;SDS011;3298;42.688;23.366;2022-09-14T14:56:28;1.38;;;1.38;;
6529;SDS011;3298;42.688;23.366;2022-09-14T14:58:54;2.97;;;1.70;;
6529;SDS011;3298;42.688;23.366;2022-09-14T15:01:21;3.10;;;1.30;;
6529;SDS011;3298;42.688;23.366;2022-09-14T15:03:49;1.07;;;1.07;;
6529;SDS011;3298;42.688;23.366;2022-09-14T15:06:17;1.37;;;1.27;;
6529;SDS011;3298;42.688;23.366;2022-09-14T15:08:47;3.50;;;1.43;;
6529;SDS011;3298;42.688;23.366;2022-09-14T15:11:18;2.37;;;1.17;;
6529;SDS011;3298;42.688;23.366;2022-09-14T15:13:45;3.60;;;1.17;;
6529;SDS011;3298;42.688;23.366;2022-09-14T15:16:13;1.20;;;1.10;;
6529;SDS011;3298;42.688;23.366;2022-09-14T15:18:40;1.40;;;1.30;;
6529;SDS011;3298;42.688;23.366;2022-09-14T15:21:08;3.13;;;1.43;;
6529;SDS011;3298;42.688;23.366;2022-09-14T15:23:37;2.37;;;1.70;;
6529;SDS011;3298;42.688;23.366;2022-09-14T15:26:04;1.80;;;1.40;;
6529;SDS011;3298;42.688;23.366;2022-09-14T15:28:31;1.63;;;1.50;;
6529;SDS011;3298;42.688;23.366;2022-09-14T15:31:02;1.07;;;1.07;;
6529;SDS011;3298;42.688;23.366;2022-09-14T15:33:30;1.73;;;1.57;;
6529;SDS011;3298;42.688;23.366;2022-09-14T15:35:57;1.70;;;1.60;;
6529;SDS011;3298;42.688;23.366;2022-09-14T15:38:26;3.30;;;1.87;;
6529;SDS011;3298;42.688;23.366;2022-09-14T15:40:52;4.13;;;1.80;;
6529;SDS011;3298;42.688;23.366;2022-09-14T15:43:19;1.93;;;1.23;;
6529;SDS011;3298;42.688;23.366;2022-09-14T15:45:46;1.40;;;1.33;;
6529;SDS011;3298;42.688;23.366;2022-09-14T15:48:13;1.80;;;1.70;;